Pagrindinis puslapis
METAR-TAF:

METAR-TAF

Oro uostai :

Bolcanas, Italija

platuma: 46-28N, ilguma: 011-20E, Aukštis: 262 m

Dabartinis oras

Ataskaita buvo paskelbta 58 minutes, ne 21:50 UTC
Vėjas 2 kt iš Pietryčių
Temperatūra 3°C
Drėgmė 81%
Slėgis 1014 hPa
Matomumas 10 km arba daugiau
Su prošvaistėmis ne aukštis 6000 ft

METAR: LIPB 272150Z 14002KT 9999 BKN060 03/00 Q1014 RMK MON INVIS

Laikas: 23:48 (22:48 UTC)

Prognozė

Ataskaita buvo paskelbta 5 valandos ir 48 minutes, ne 17:00 UTC
Prognozė galioja nuo 27 metu 18 UTC su 28 metu 18 UTC
Vėjas 3 kt nuo kintamojo kryptimis
Matomumas 10 km arba daugiau
Išsisklaidę debesys ne aukštis 6000 ft
Tapsmas
nuo 28 metu 12 UTC su 28 metu 15 UTC
Vėjas 10 kt iš Šiaurės

TAF: LIPB 271700Z 2718/2818 VRB03KT 9999 SCT060 BECMG 2812/2815 35010KT

Orai ataskaitas ir orų prognozės (METAR, TAF).

turimą stotys yra geltonos ir raudonos taškus žemėlapyje.

Perkelti pele per norėdami pamatyti stoties vardą.

Tada spustelėkite, norėdami matyti oro stebėjimo ir prognozės.

Norėdami pakeisti žemėlapį: spustelėkite ant žalios mygtukų su juodo kryžiaus žemyn,; žalią mygtuką su brūkšneliu, jei norite nutolinti; arba žalių rodyklių gretimoms žemėlapius.


METAR-TAF: